Time;durP1;ratioP1;P1;durP2;ratioP2;P2;SDS_P1;SDS_P2;PMS_P1;PMS_P2;Temp;Humidity;BMP_temperature;BMP_pressure;BME280_temperature;BME280_humidity;BME280_pressure;Samples;Min_cycle;Max_cycle;Signal;HPM_P1;HPM_P2
2021/08/30 00:02:26;;;;;;;12.65;6.68;;;;;;;;;;6167471;23;20196;-90
2021/08/30 00:05:32;;;;;;;12.02;6.45;;;;;;;;;;6168099;23;20196;-90
2021/08/30 00:08:37;;;;;;;9.82;6.57;;;;;;;;;;6167809;23;20164;-90
2021/08/30 00:11:42;;;;;;;10.45;6.65;;;;;;;;;;6168029;23;20216;-88
2021/08/30 00:14:47;;;;;;;11.60;6.05;;;;;;;;;;6168510;23;20164;-91
2021/08/30 00:17:52;;;;;;;8.65;5.75;;;;;;;;;;6168332;23;20564;-90
2021/08/30 00:20:58;;;;;;;9.70;6.10;;;;;;;;;;6167206;23;20505;-90
2021/08/30 00:24:03;;;;;;;9.60;6.13;;;;;;;;;;6169381;23;20180;-89
2021/08/30 00:27:08;;;;;;;9.10;6.18;;;;;;;;;;6168779;23;20627;-89
2021/08/30 00:30:15;;;;;;;11.00;6.80;;;;;;;;;;6169536;23;20663;-90
2021/08/30 00:33:20;;;;;;;9.48;6.45;;;;;;;;;;6168492;23;20172;-88
2021/08/30 00:36:27;;;;;;;10.82;6.53;;;;;;;;;;6167651;23;20223;-88
2021/08/30 00:39:32;;;;;;;9.55;6.22;;;;;;;;;;6167890;23;20173;-88
2021/08/30 00:42:38;;;;;;;8.65;5.97;;;;;;;;;;6168609;23;20177;-89
2021/08/30 00:45:43;;;;;;;9.63;6.35;;;;;;;;;;6168698;23;20192;-89
2021/08/30 00:48:49;;;;;;;10.95;6.50;;;;;;;;;;6167373;23;20176;-90
2021/08/30 00:51:55;;;;;;;10.27;5.90;;;;;;;;;;6171454;23;20176;-91
2021/08/30 00:55:00;;;;;;;9.52;5.88;;;;;;;;;;6168573;23;20165;-90
2021/08/30 00:58:06;;;;;;;11.57;6.68;;;;;;;;;;6167750;23;20200;-89
2021/08/30 01:01:11;;;;;;;10.43;6.05;;;;;;;;;;6179503;23;20231;-91
2021/08/30 01:04:16;;;;;;;12.65;6.28;;;;;;;;;;6181157;23;20176;-89
2021/08/30 01:07:27;;;;;;;12.60;6.85;;;;;;;;;;6181826;23;20191;-90
2021/08/30 01:10:38;;;;;;;9.77;6.63;;;;;;;;;;6181176;23;20164;-87
2021/08/30 01:13:46;;;;;;;10.13;6.28;;;;;;;;;;6182591;23;20195;-89
2021/08/30 01:16:52;;;;;;;11.63;6.80;;;;;;;;;;6181567;23;20167;-90
2021/08/30 01:20:02;;;;;;;10.43;6.07;;;;;;;;;;6180867;23;20573;-89
2021/08/30 01:23:08;;;;;;;9.40;6.05;;;;;;;;;;6181457;23;20168;-88
2021/08/30 01:26:15;;;;;;;8.90;6.22;;;;;;;;;;6180117;23;20522;-88
2021/08/30 01:29:25;;;;;;;9.95;6.35;;;;;;;;;;6182290;23;20155;-89
2021/08/30 01:32:32;;;;;;;10.63;6.25;;;;;;;;;;6180097;23;20176;-88
2021/08/30 01:35:38;;;;;;;13.50;6.93;;;;;;;;;;6180277;23;20353;-91
2021/08/30 01:38:46;;;;;;;10.05;6.80;;;;;;;;;;6180019;23;20619;-89
2021/08/30 01:41:51;;;;;;;13.05;7.00;;;;;;;;;;6180603;23;20151;-89
2021/08/30 01:44:57;;;;;;;12.55;7.20;;;;;;;;;;6180943;23;20170;-91
2021/08/30 01:48:04;;;;;;;9.63;6.38;;;;;;;;;;6179810;23;20175;-89
2021/08/30 01:51:10;;;;;;;11.68;6.80;;;;;;;;;;6178950;23;20175;-90
2021/08/30 01:54:17;;;;;;;11.20;6.18;;;;;;;;;;6178540;23;20143;-88
2021/08/30 01:57:23;;;;;;;10.98;6.95;;;;;;;;;;6179473;23;20511;-87
2021/08/30 02:00:44;;;;;;;13.02;7.00;;;;;;;;;;6179770;23;20167;-90
2021/08/30 02:03:51;;;;;;;9.38;6.07;;;;;;;;;;6181468;23;20346;-91
2021/08/30 02:06:57;;;;;;;10.68;6.22;;;;;;;;;;6181126;23;20274;-89
2021/08/30 02:10:03;;;;;;;10.68;6.55;;;;;;;;;;6179840;23;20168;-90
2021/08/30 02:13:08;;;;;;;9.13;6.18;;;;;;;;;;6180072;23;20172;-90
2021/08/30 02:16:13;;;;;;;11.35;6.70;;;;;;;;;;6178329;23;20247;-89
2021/08/30 02:19:22;;;;;;;12.50;6.05;;;;;;;;;;6177894;23;20172;-90
2021/08/30 02:22:29;;;;;;;8.90;6.05;;;;;;;;;;6177754;23;20209;-89
2021/08/30 02:25:34;;;;;;;10.07;6.45;;;;;;;;;;6177798;23;20231;-88
2021/08/30 02:28:41;;;;;;;12.40;6.47;;;;;;;;;;6179629;23;20167;-90
2021/08/30 02:31:48;;;;;;;13.13;6.35;;;;;;;;;;6178474;23;20167;-91
2021/08/30 02:34:56;;;;;;;11.15;6.13;;;;;;;;;;6179917;23;20160;-88
2021/08/30 02:38:02;;;;;;;9.55;6.35;;;;;;;;;;6179889;23;20240;-92
2021/08/30 02:41:07;;;;;;;9.20;6.07;;;;;;;;;;6179212;23;20288;-91
2021/08/30 02:44:13;;;;;;;10.43;6.13;;;;;;;;;;6177425;23;20163;-90
2021/08/30 02:47:19;;;;;;;10.55;6.47;;;;;;;;;;6177656;23;20184;-90
2021/08/30 02:50:26;;;;;;;9.40;6.20;;;;;;;;;;6177192;23;20288;-89
2021/08/30 02:53:31;;;;;;;8.52;5.80;;;;;;;;;;6175954;23;20168;-90
2021/08/30 02:56:37;;;;;;;10.02;5.82;;;;;;;;;;6175841;23;20211;-89
2021/08/30 02:59:42;;;;;;;12.32;6.45;;;;;;;;;;6175018;23;20168;-89
2021/08/30 03:02:48;;;;;;;10.32;6.93;;;;;;;;;;6173501;23;20171;-90
2021/08/30 03:05:56;;;;;;;12.63;7.53;;;;;;;;;;6174680;23;20222;-89
2021/08/30 03:09:01;;;;;;;13.35;7.78;;;;;;;;;;6176014;23;20168;-89
2021/08/30 03:12:08;;;;;;;10.18;6.82;;;;;;;;;;6177624;23;20176;-91
2021/08/30 03:15:14;;;;;;;13.43;7.38;;;;;;;;;;6175139;23;20184;-89
2021/08/30 03:18:20;;;;;;;17.23;7.00;;;;;;;;;;6176497;23;20171;-90
2021/08/30 03:21:28;;;;;;;12.00;6.75;;;;;;;;;;6175723;23;20200;-88
2021/08/30 03:24:33;;;;;;;14.55;7.50;;;;;;;;;;6177393;23;20151;-90
2021/08/30 03:27:38;;;;;;;9.75;6.60;;;;;;;;;;6176977;23;20191;-91
2021/08/30 03:30:46;;;;;;;9.88;6.55;;;;;;;;;;6177336;23;20167;-90
2021/08/30 03:33:52;;;;;;;14.32;6.63;;;;;;;;;;6177104;23;20216;-90
2021/08/30 03:36:58;;;;;;;9.38;6.50;;;;;;;;;;6176988;23;20188;-90
2021/08/30 03:40:04;;;;;;;10.70;6.25;;;;;;;;;;6175465;23;20207;-89
2021/08/30 03:43:10;;;;;;;9.82;6.93;;;;;;;;;;6177220;23;20163;-89
2021/08/30 03:46:14;;;;;;;9.98;5.97;;;;;;;;;;6175298;23;20643;-89
2021/08/30 03:49:20;;;;;;;9.55;6.65;;;;;;;;;;6173544;23;20239;-88
2021/08/30 03:52:27;;;;;;;14.10;6.72;;;;;;;;;;6175409;23;20206;-89
2021/08/30 03:55:33;;;;;;;12.00;6.40;;;;;;;;;;6174417;23;20196;-89
2021/08/30 03:58:39;;;;;;;10.32;6.68;;;;;;;;;;6174367;23;20307;-89
2021/08/30 04:01:47;;;;;;;14.10;6.82;;;;;;;;;;6161723;23;20247;-90
2021/08/30 04:04:52;;;;;;;11.50;6.78;;;;;;;;;;6163008;23;20176;-89
2021/08/30 04:08:00;;;;;;;14.82;7.03;;;;;;;;;;6160456;23;20191;-91
2021/08/30 04:11:06;;;;;;;15.43;7.45;;;;;;;;;;6165233;23;20180;-90
2021/08/30 04:14:11;;;;;;;11.52;6.60;;;;;;;;;;6161595;23;20175;-89
2021/08/30 04:17:16;;;;;;;11.57;7.10;;;;;;;;;;6162271;23;20157;-90
2021/08/30 04:20:21;;;;;;;11.38;6.75;;;;;;;;;;6162354;23;20169;-89
2021/08/30 04:23:30;;;;;;;13.35;6.78;;;;;;;;;;6162861;23;20173;-89
2021/08/30 04:26:35;;;;;;;9.43;6.57;;;;;;;;;;6163135;23;20270;-89
2021/08/30 04:29:40;;;;;;;8.77;6.35;;;;;;;;;;6163968;23;20195;-90
2021/08/30 04:32:45;;;;;;;9.80;6.22;;;;;;;;;;6162764;23;20732;-88
2021/08/30 04:35:50;;;;;;;12.30;6.35;;;;;;;;;;6164928;23;20164;-88
2021/08/30 04:38:56;;;;;;;12.55;6.50;;;;;;;;;;6163598;23;20168;-89
2021/08/30 04:42:04;;;;;;;10.85;6.53;;;;;;;;;;6163643;23;20164;-89
2021/08/30 04:45:09;;;;;;;11.00;6.20;;;;;;;;;;6166865;23;20176;-91
2021/08/30 04:48:14;;;;;;;10.48;6.60;;;;;;;;;;6165495;23;20192;-90
2021/08/30 04:51:19;;;;;;;11.35;6.43;;;;;;;;;;6165705;23;20165;-90
2021/08/30 04:54:33;;;;;;;9.38;6.30;;;;;;;;;;6165180;23;20179;-90
2021/08/30 04:57:44;;;;;;;9.98;6.28;;;;;;;;;;6165831;23;20296;-89
2021/08/30 05:00:49;;;;;;;10.02;6.20;;;;;;;;;;6171302;23;20200;-89
2021/08/30 05:03:54;;;;;;;13.45;7.28;;;;;;;;;;6176820;23;20246;-91
2021/08/30 05:06:59;;;;;;;9.43;5.82;;;;;;;;;;6175133;23;20279;-87
2021/08/30 05:10:07;;;;;;;11.10;5.82;;;;;;;;;;6177594;23;20220;-90
2021/08/30 05:13:12;;;;;;;12.07;6.05;;;;;;;;;;6177889;23;20491;-91
2021/08/30 05:16:17;;;;;;;10.35;5.90;;;;;;;;;;6179684;23;20156;-89
2021/08/30 05:19:24;;;;;;;11.98;6.13;;;;;;;;;;6177452;23;20240;-89
2021/08/30 07:52:06;;;;;;;1.90;1.58;;;;;;;;;;6134186;23;20197;-90
2021/08/30 07:55:13;;;;;;;2.80;1.80;;;;;;;;;;6152225;23;20172;-90
2021/08/30 07:58:18;;;;;;;2.55;1.85;;;;;;;;;;6152976;23;20180;-90
2021/08/30 08:01:23;;;;;;;3.20;1.42;;;;;;;;;;6155207;23;20240;-88
2021/08/30 08:04:28;;;;;;;1.08;0.98;;;;;;;;;;6156760;23;20176;-90
2021/08/30 08:07:38;;;;;;;1.40;0.63;;;;;;;;;;6173057;23;20558;-89
2021/08/30 08:10:44;;;;;;;1.90;0.85;;;;;;;;;;6157388;23;20164;-91
2021/08/30 08:13:50;;;;;;;2.45;0.90;;;;;;;;;;6155366;23;20197;-90
2021/08/30 08:16:55;;;;;;;1.88;0.70;;;;;;;;;;6157028;23;20212;-92
2021/08/30 08:20:00;;;;;;;5.97;0.70;;;;;;;;;;6156492;23;20181;-92
2021/08/30 08:23:06;;;;;;;1.45;0.70;;;;;;;;;;6148818;23;20296;-90
2021/08/30 08:26:11;;;;;;;2.10;0.77;;;;;;;;;;6149383;23;20151;-89
2021/08/30 08:29:16;;;;;;;1.35;0.65;;;;;;;;;;6150932;23;20172;-89
2021/08/30 08:32:21;;;;;;;1.73;0.60;;;;;;;;;;6151196;23;20168;-89
2021/08/30 08:35:26;;;;;;;1.00;0.60;;;;;;;;;;6169836;23;20540;-90
2021/08/30 08:38:33;;;;;;;0.40;0.40;;;;;;;;;;6154965;23;20172;-91
2021/08/30 08:41:38;;;;;;;1.90;0.70;;;;;;;;;;6155929;23;20312;-90
2021/08/30 08:44:46;;;;;;;3.38;2.35;;;;;;;;;;6156398;23;20184;-90
2021/08/30 08:47:55;;;;;;;1.20;0.88;;;;;;;;;;6153226;23;20205;-90
2021/08/30 08:51:01;;;;;;;1.23;0.60;;;;;;;;;;6156947;23;20157;-89
2021/08/30 08:54:10;;;;;;;1.08;0.70;;;;;;;;;;6143663;23;20201;-89
2021/08/30 08:57:19;;;;;;;2.22;0.60;;;;;;;;;;6140481;23;20157;-90
2021/08/30 09:00:32;;;;;;;2.17;0.60;;;;;;;;;;6141509;23;20185;-92
2021/08/30 09:03:44;;;;;;;2.72;0.73;;;;;;;;;;6139404;23;20161;-91
2021/08/30 09:06:51;;;;;;;1.10;0.63;;;;;;;;;;6140873;23;20246;-92
2021/08/30 09:09:59;;;;;;;1.85;0.60;;;;;;;;;;6140136;23;20173;-89
2021/08/30 09:13:05;;;;;;;2.20;0.80;;;;;;;;;;6142331;23;20165;-91
2021/08/30 09:16:18;;;;;;;0.40;0.40;;;;;;;;;;6139422;23;20209;-92
2021/08/30 09:19:23;;;;;;;0.43;0.43;;;;;;;;;;6139599;23;20169;-92
2021/08/30 09:22:29;;;;;;;1.80;0.55;;;;;;;;;;6140483;23;20172;-92
2021/08/30 09:25:36;;;;;;;0.93;0.50;;;;;;;;;;6138081;23;20193;-89
2021/08/30 09:28:43;;;;;;;2.45;0.60;;;;;;;;;;6140477;23;20221;-90
2021/08/30 09:31:59;;;;;;;1.23;0.70;;;;;;;;;;6141587;23;20173;-88
2021/08/30 09:35:04;;;;;;;1.40;0.70;;;;;;;;;;6138392;23;20171;-90
2021/08/30 09:38:18;;;;;;;1.40;0.95;;;;;;;;;;6136869;23;20176;-93
2021/08/30 09:41:25;;;;;;;1.95;1.02;;;;;;;;;;6137103;23;20186;-90
2021/08/30 09:44:31;;;;;;;2.40;1.08;;;;;;;;;;6137529;23;20180;-90
2021/08/30 09:47:36;;;;;;;1.00;0.70;;;;;;;;;;6143941;23;20200;-91
2021/08/30 09:50:45;;;;;;;0.85;0.50;;;;;;;;;;6140147;23;20173;-89
2021/08/30 09:53:50;;;;;;;0.80;0.65;;;;;;;;;;6139985;23;20378;-90
2021/08/30 09:56:58;;;;;;;3.17;0.90;;;;;;;;;;6141277;23;20197;-89
2021/08/30 10:00:05;;;;;;;1.67;0.80;;;;;;;;;;6138499;23;20605;-89
2021/08/30 10:03:13;;;;;;;1.30;0.73;;;;;;;;;;6138453;23;20173;-92
2021/08/30 10:06:19;;;;;;;1.00;0.70;;;;;;;;;;6138948;23;20173;-89
2021/08/30 10:09:24;;;;;;;1.17;0.70;;;;;;;;;;6137636;23;20189;-91
2021/08/30 10:12:30;;;;;;;2.65;0.80;;;;;;;;;;6137277;23;20173;-91
2021/08/30 10:15:35;;;;;;;1.20;0.60;;;;;;;;;;6137270;23;20266;-92
2021/08/30 10:18:48;;;;;;;1.38;0.63;;;;;;;;;;6138581;23;20173;-90
2021/08/30 10:21:53;;;;;;;0.73;0.60;;;;;;;;;;6137519;23;20177;-93
2021/08/30 10:24:59;;;;;;;3.53;0.50;;;;;;;;;;6137773;23;20169;-89
2021/08/30 10:28:07;;;;;;;1.38;0.60;;;;;;;;;;6136656;23;20175;-92
2021/08/30 10:31:16;;;;;;;1.00;0.70;;;;;;;;;;6142163;23;20244;-91
2021/08/30 10:34:35;;;;;;;0.40;0.40;;;;;;;;;;6141400;23;20173;-90
2021/08/30 10:37:48;;;;;;;0.65;0.50;;;;;;;;;;6140543;23;20177;-91
2021/08/30 10:40:53;;;;;;;0.93;0.65;;;;;;;;;;6139606;23;20172;-90
2021/08/30 10:44:07;;;;;;;0.60;0.60;;;;;;;;;;6139649;23;20174;-87
2021/08/30 10:47:13;;;;;;;0.73;0.50;;;;;;;;;;6137926;23;20177;-88
2021/08/30 10:50:21;;;;;;;0.70;0.60;;;;;;;;;;6139991;23;20277;-89
2021/08/30 10:53:27;;;;;;;1.58;0.60;;;;;;;;;;6139332;23;20213;-91
2021/08/30 10:56:33;;;;;;;0.93;0.47;;;;;;;;;;6138626;23;20464;-88
2021/08/30 10:59:41;;;;;;;2.88;1.35;;;;;;;;;;6141692;23;20255;-89
2021/08/30 11:02:47;;;;;;;1.55;0.70;;;;;;;;;;6140945;23;20170;-88
2021/08/30 11:06:00;;;;;;;0.47;0.47;;;;;;;;;;6141605;23;20173;-91
2021/08/30 11:09:06;;;;;;;1.70;0.50;;;;;;;;;;6139919;23;20193;-91
2021/08/30 11:12:13;;;;;;;1.67;0.47;;;;;;;;;;6138444;23;20495;-90
2021/08/30 11:15:20;;;;;;;0.80;0.60;;;;;;;;;;6135658;23;20604;-90
2021/08/30 11:18:28;;;;;;;0.73;0.50;;;;;;;;;;6137097;23;20168;-90
2021/08/30 11:21:39;;;;;;;29.77;19.73;;;;;;;;;;6137179;23;20172;-91
2021/08/30 11:24:44;;;;;;;0.70;0.65;;;;;;;;;;6137331;23;20226;-90
2021/08/30 11:27:49;;;;;;;0.50;0.43;;;;;;;;;;6137767;23;20212;-88
2021/08/30 11:30:55;;;;;;;0.52;0.50;;;;;;;;;;6137969;23;20199;-89
2021/08/30 11:34:00;;;;;;;1.13;0.80;;;;;;;;;;6139332;23;20193;-90
2021/08/30 11:37:07;;;;;;;0.98;0.68;;;;;;;;;;6141938;23;20628;-88
2021/08/30 11:40:14;;;;;;;1.20;0.50;;;;;;;;;;6138998;23;20361;-91
2021/08/30 11:43:22;;;;;;;2.45;1.45;;;;;;;;;;6139071;23;20525;-88
2021/08/30 11:46:29;;;;;;;0.63;0.47;;;;;;;;;;6141491;23;20237;-91
2021/08/30 11:49:38;;;;;;;0.88;0.43;;;;;;;;;;6142089;23;20236;-90
2021/08/30 11:52:44;;;;;;;0.40;0.40;;;;;;;;;;6147162;23;20276;-90
2021/08/30 11:55:48;;;;;;;0.60;0.50;;;;;;;;;;6149560;23;20176;-89
2021/08/30 11:58:53;;;;;;;0.75;0.32;;;;;;;;;;6148307;23;20168;-90
2021/08/30 12:02:01;;;;;;;0.50;0.50;;;;;;;;;;6151796;23;20204;-91
2021/08/30 12:05:07;;;;;;;0.75;0.60;;;;;;;;;;6150731;23;20168;-91
2021/08/30 12:08:13;;;;;;;0.93;0.70;;;;;;;;;;6150958;23;20179;-91
2021/08/30 12:11:19;;;;;;;0.50;0.40;;;;;;;;;;6153061;23;20433;-90
2021/08/30 12:14:25;;;;;;;0.47;0.47;;;;;;;;;;6150010;23;20196;-90
2021/08/30 12:17:33;;;;;;;0.55;0.40;;;;;;;;;;6151243;23;20176;-90
2021/08/30 12:20:40;;;;;;;0.90;0.50;;;;;;;;;;6149548;23;20200;-90
2021/08/30 12:23:51;;;;;;;3.45;0.60;;;;;;;;;;6149758;23;20208;-90
2021/08/30 12:26:57;;;;;;;5.30;0.60;;;;;;;;;;6150169;23;20167;-88
2021/08/30 12:30:09;;;;;;;2.25;0.70;;;;;;;;;;6148991;23;20172;-89
2021/08/30 12:33:19;;;;;;;0.90;0.70;;;;;;;;;;6150115;23;20219;-89
2021/08/30 12:36:24;;;;;;;2.78;0.80;;;;;;;;;;6151720;23;20160;-89
2021/08/30 12:39:29;;;;;;;1.10;0.60;;;;;;;;;;6153034;23;20254;-89
2021/08/30 12:42:36;;;;;;;0.80;0.63;;;;;;;;;;6152656;23;20204;-91
2021/08/30 12:45:42;;;;;;;1.10;0.60;;;;;;;;;;6157627;23;20265;-88
2021/08/30 12:48:50;;;;;;;1.13;0.80;;;;;;;;;;6151582;23;20235;-91
2021/08/30 12:51:55;;;;;;;0.65;0.60;;;;;;;;;;6153301;23;20184;-90
2021/08/30 12:54:59;;;;;;;1.13;0.70;;;;;;;;;;6122822;23;20183;-89
2021/08/30 12:58:04;;;;;;;3.20;0.60;;;;;;;;;;6122976;23;20176;-92
2021/08/30 13:01:09;;;;;;;2.08;0.80;;;;;;;;;;6122592;23;20189;-89
2021/08/30 13:04:16;;;;;;;0.82;0.68;;;;;;;;;;6122068;23;20627;-89
2021/08/30 13:07:23;;;;;;;0.70;0.60;;;;;;;;;;6138484;23;20185;-90
2021/08/30 13:10:28;;;;;;;1.10;0.60;;;;;;;;;;6137898;23;20173;-89
2021/08/30 13:13:33;;;;;;;0.80;0.60;;;;;;;;;;6123665;23;20216;-90
2021/08/30 13:16:39;;;;;;;0.93;0.60;;;;;;;;;;6124729;23;20172;-91
2021/08/30 13:19:46;;;;;;;0.73;0.60;;;;;;;;;;6142867;23;20177;-89
2021/08/30 13:22:51;;;;;;;0.85;0.57;;;;;;;;;;6124963;23;20228;-90
2021/08/30 13:25:56;;;;;;;0.60;0.60;;;;;;;;;;6114432;23;20173;-89
2021/08/30 13:29:03;;;;;;;0.70;0.55;;;;;;;;;;6140454;23;20286;-89
2021/08/30 13:32:09;;;;;;;0.90;0.60;;;;;;;;;;6144250;23;20161;-88
2021/08/30 13:35:16;;;;;;;1.23;0.75;;;;;;;;;;6125962;23;20495;-89
2021/08/30 13:38:23;;;;;;;0.77;0.70;;;;;;;;;;6141121;23;20177;-87
2021/08/30 13:41:28;;;;;;;3.28;0.90;;;;;;;;;;6126538;23;20161;-90
2021/08/30 13:44:34;;;;;;;0.80;0.70;;;;;;;;;;6139824;23;20178;-89
2021/08/30 13:47:40;;;;;;;3.35;1.00;;;;;;;;;;6124028;23;20168;-89
2021/08/30 13:50:46;;;;;;;2.55;1.00;;;;;;;;;;6124669;23;20223;-87
2021/08/30 13:53:52;;;;;;;1.83;0.98;;;;;;;;;;6144941;23;20275;-88
2021/08/30 13:56:57;;;;;;;1.65;0.85;;;;;;;;;;6152286;23;20172;-88
2021/08/30 14:00:02;;;;;;;5.82;0.95;;;;;;;;;;6154011;23;20168;-88
2021/08/30 14:03:16;;;;;;;10.15;1.75;;;;;;;;;;6169794;23;20172;-90
2021/08/30 14:06:23;;;;;;;4.53;1.58;;;;;;;;;;6153637;23;20180;-88
2021/08/30 14:09:32;;;;;;;3.03;1.00;;;;;;;;;;6152688;23;20195;-88
2021/08/30 14:12:37;;;;;;;3.10;1.17;;;;;;;;;;6152666;23;20188;-89
2021/08/30 14:15:44;;;;;;;2.42;1.10;;;;;;;;;;6150332;23;20196;-89
2021/08/30 14:18:49;;;;;;;1.30;0.93;;;;;;;;;;6151251;23;20165;-89
2021/08/30 14:21:55;;;;;;;2.33;1.10;;;;;;;;;;6152065;23;20907;-87
2021/08/30 14:25:00;;;;;;;2.85;0.98;;;;;;;;;;6152309;23;20249;-89
2021/08/30 14:28:05;;;;;;;1.25;0.70;;;;;;;;;;6149555;23;20171;-90
2021/08/30 14:31:10;;;;;;;1.00;0.82;;;;;;;;;;6150821;23;20164;-89
2021/08/30 14:34:16;;;;;;;2.17;1.08;;;;;;;;;;6149472;23;20176;-88
2021/08/30 14:37:22;;;;;;;3.60;0.98;;;;;;;;;;6151577;23;20168;-89
2021/08/30 14:40:28;;;;;;;2.42;0.82;;;;;;;;;;6151385;23;20180;-90
2021/08/30 14:43:33;;;;;;;1.63;0.80;;;;;;;;;;6149559;23;20168;-89
2021/08/30 14:46:38;;;;;;;2.05;0.90;;;;;;;;;;6149688;23;20288;-89
2021/08/30 14:49:43;;;;;;;1.45;0.85;;;;;;;;;;6151958;23;20258;-89
2021/08/30 14:52:51;;;;;;;2.10;0.80;;;;;;;;;;6151983;23;20179;-90
2021/08/30 14:55:56;;;;;;;3.42;0.90;;;;;;;;;;6170218;23;20161;-89
2021/08/30 14:59:01;;;;;;;2.03;1.08;;;;;;;;;;6150114;23;20196;-90
2021/08/30 15:02:08;;;;;;;1.60;0.80;;;;;;;;;;6151211;23;20168;-89
2021/08/30 15:05:13;;;;;;;2.40;1.20;;;;;;;;;;6155084;23;20198;-89
2021/08/30 15:08:21;;;;;;;3.28;1.00;;;;;;;;;;6149874;23;20168;-86
2021/08/30 15:11:26;;;;;;;4.45;1.00;;;;;;;;;;6158661;23;20169;-89
2021/08/30 15:14:32;;;;;;;2.75;0.80;;;;;;;;;;6151820;23;20176;-89
2021/08/30 15:17:37;;;;;;;1.55;1.00;;;;;;;;;;6149738;23;20176;-90
2021/08/30 15:20:42;;;;;;;0.90;0.70;;;;;;;;;;6148553;23;20168;-89
2021/08/30 15:23:50;;;;;;;1.27;0.70;;;;;;;;;;6150069;23;20176;-88
2021/08/30 15:26:55;;;;;;;5.88;0.80;;;;;;;;;;6168165;23;20176;-90
2021/08/30 15:30:01;;;;;;;3.67;0.90;;;;;;;;;;6150101;23;20333;-90
2021/08/30 15:33:10;;;;;;;3.50;0.73;;;;;;;;;;6149263;23;20180;-86
2021/08/30 15:36:16;;;;;;;0.90;0.80;;;;;;;;;;6148395;23;20955;-89
2021/08/30 15:39:23;;;;;;;1.52;0.93;;;;;;;;;;6148842;23;20253;-88
2021/08/30 15:42:27;;;;;;;2.08;1.55;;;;;;;;;;6151719;23;20174;-89
2021/08/30 15:45:33;;;;;;;1.55;0.90;;;;;;;;;;6148238;23;20173;-88
2021/08/30 15:48:38;;;;;;;1.90;0.80;;;;;;;;;;6148905;23;20176;-89
2021/08/30 15:51:43;;;;;;;1.92;0.93;;;;;;;;;;6145519;23;20188;-88
2021/08/30 15:54:49;;;;;;;2.97;1.00;;;;;;;;;;6146422;23;20171;-89
2021/08/30 15:57:54;;;;;;;0.90;0.70;;;;;;;;;;6146875;23;20168;-89
2021/08/30 16:01:00;;;;;;;3.70;1.08;;;;;;;;;;6146139;23;20224;-90
2021/08/30 16:04:10;;;;;;;3.40;1.00;;;;;;;;;;6146409;23;20605;-89
2021/08/30 16:07:17;;;;;;;4.05;0.90;;;;;;;;;;6147585;23;20165;-90
2021/08/30 16:10:24;;;;;;;1.63;1.10;;;;;;;;;;6146872;23;20253;-89
2021/08/30 16:13:33;;;;;;;3.70;1.55;;;;;;;;;;6144508;23;20240;-91
2021/08/30 16:16:39;;;;;;;3.10;1.42;;;;;;;;;;6147706;23;20173;-91
2021/08/30 16:19:44;;;;;;;1.08;0.98;;;;;;;;;;6149137;23;20180;-90
2021/08/30 16:22:49;;;;;;;1.88;1.00;;;;;;;;;;6148160;23;20191;-91
2021/08/30 16:25:55;;;;;;;3.60;1.02;;;;;;;;;;6149033;23;21024;-91
2021/08/30 16:29:00;;;;;;;1.88;1.10;;;;;;;;;;6148467;23;20237;-91
2021/08/30 16:32:06;;;;;;;1.83;1.10;;;;;;;;;;6145638;23;20175;-89
2021/08/30 16:35:11;;;;;;;4.13;1.20;;;;;;;;;;6151854;23;20172;-88
2021/08/30 16:38:17;;;;;;;1.65;1.10;;;;;;;;;;6147438;23;20309;-89
2021/08/30 16:41:23;;;;;;;5.95;1.88;;;;;;;;;;6149189;23;20252;-88
2021/08/30 16:44:32;;;;;;;5.47;1.70;;;;;;;;;;6149066;23;20220;-87
2021/08/30 16:47:40;;;;;;;7.43;1.50;;;;;;;;;;6152892;23;20172;-90
2021/08/30 16:50:47;;;;;;;9.50;4.00;;;;;;;;;;6149429;23;20193;-88
2021/08/30 16:53:53;;;;;;;5.88;1.48;;;;;;;;;;6136859;23;20216;-89
2021/08/30 16:56:59;;;;;;;4.03;1.98;;;;;;;;;;6136241;23;20169;-90
2021/08/30 17:00:06;;;;;;;3.15;1.85;;;;;;;;;;6138957;23;20169;-90
2021/08/30 17:03:11;;;;;;;1.92;1.42;;;;;;;;;;6136278;23;20166;-90
2021/08/30 17:06:15;;;;;;;5.63;2.20;;;;;;;;;;6133922;23;20502;-90
2021/08/30 17:09:20;;;;;;;3.35;1.80;;;;;;;;;;6131725;23;20193;-89
2021/08/30 17:15:49;;;;;;;1.58;1.30;;;;;;;;;;6135895;23;20539;-90
2021/08/30 17:18:54;;;;;;;1.73;1.30;;;;;;;;;;6134259;23;20226;-90
2021/08/30 17:21:59;;;;;;;2.40;1.40;;;;;;;;;;6133636;23;20173;-88
2021/08/30 17:25:04;;;;;;;1.90;1.30;;;;;;;;;;6133472;23;20184;-89
2021/08/30 17:28:10;;;;;;;3.35;1.50;;;;;;;;;;6135170;23;20176;-90
2021/08/30 17:31:15;;;;;;;2.40;1.77;;;;;;;;;;6134911;23;20305;-90
2021/08/30 17:34:20;;;;;;;4.65;2.45;;;;;;;;;;6133646;23;20176;-88
2021/08/30 17:37:25;;;;;;;3.05;2.20;;;;;;;;;;6134893;23;20245;-90
2021/08/30 17:40:30;;;;;;;3.72;1.95;;;;;;;;;;6135021;23;20250;-90
2021/08/30 17:43:37;;;;;;;3.20;2.08;;;;;;;;;;6136665;23;20191;-90
2021/08/30 17:46:42;;;;;;;6.50;2.35;;;;;;;;;;6134088;23;20181;-89
2021/08/30 17:49:47;;;;;;;4.75;2.03;;;;;;;;;;6133821;23;20196;-90
2021/08/30 17:52:52;;;;;;;6.30;2.15;;;;;;;;;;6140220;23;20636;-88
2021/08/30 17:56:30;;;;;;;4.45;2.40;;;;;;;;;;6147870;23;20244;-86
2021/08/30 17:59:36;;;;;;;3.80;2.15;;;;;;;;;;6149528;23;20172;-87
2021/08/30 18:02:41;;;;;;;5.85;2.85;;;;;;;;;;6149651;23;20169;-89
2021/08/30 18:05:46;;;;;;;8.43;2.58;;;;;;;;;;6149365;23;20172;-88
2021/08/30 18:08:52;;;;;;;3.70;2.35;;;;;;;;;;6147571;23;20169;-88
2021/08/30 18:11:57;;;;;;;3.33;1.85;;;;;;;;;;6148085;23;20172;-88
2021/08/30 18:15:04;;;;;;;4.65;1.90;;;;;;;;;;6148345;23;20172;-90
2021/08/30 18:18:09;;;;;;;3.22;2.35;;;;;;;;;;6148814;23;20164;-90
2021/08/30 18:21:14;;;;;;;6.50;2.30;;;;;;;;;;6152468;23;20173;-92
2021/08/30 18:24:19;;;;;;;3.47;1.55;;;;;;;;;;6150468;23;20288;-88
2021/08/30 18:27:25;;;;;;;5.05;1.83;;;;;;;;;;6169496;23;20225;-87
2021/08/30 18:30:31;;;;;;;5.00;1.77;;;;;;;;;;6149767;23;20192;-90
2021/08/30 18:33:36;;;;;;;5.57;2.20;;;;;;;;;;6166377;23;20172;-89
2021/08/30 18:36:41;;;;;;;4.82;2.35;;;;;;;;;;6148820;23;20542;-86
2021/08/30 18:39:49;;;;;;;13.43;5.95;;;;;;;;;;6150705;23;20173;-89
2021/08/30 18:42:54;;;;;;;4.28;2.08;;;;;;;;;;6149469;23;20304;-87
2021/08/30 18:46:00;;;;;;;4.10;2.38;;;;;;;;;;6149933;23;20168;-90
2021/08/30 18:49:05;;;;;;;3.13;2.28;;;;;;;;;;6149647;23;20172;-88
2021/08/30 18:52:10;;;;;;;5.18;2.45;;;;;;;;;;6148376;23;20604;-88
2021/08/30 18:55:17;;;;;;;4.28;2.72;;;;;;;;;;6121924;23;20177;-89
2021/08/30 18:58:23;;;;;;;5.43;2.97;;;;;;;;;;6119860;23;20228;-85
2021/08/30 19:01:29;;;;;;;4.35;2.70;;;;;;;;;;6117739;23;20164;-88
2021/08/30 19:04:34;;;;;;;3.10;2.33;;;;;;;;;;6122266;23;20176;-87
2021/08/30 19:07:39;;;;;;;5.10;2.40;;;;;;;;;;6116838;23;20213;-88
2021/08/30 19:10:44;;;;;;;3.40;2.33;;;;;;;;;;6117516;23;20197;-89
2021/08/30 19:13:49;;;;;;;4.22;2.25;;;;;;;;;;6115676;23;20173;-91
2021/08/30 19:16:55;;;;;;;8.25;2.88;;;;;;;;;;6117282;23;20249;-89
2021/08/30 19:20:01;;;;;;;3.20;2.30;;;;;;;;;;6116395;23;20162;-88
2021/08/30 19:23:06;;;;;;;3.70;2.40;;;;;;;;;;6116299;23;20189;-88
2021/08/30 19:26:11;;;;;;;3.63;2.47;;;;;;;;;;6115772;23;20173;-89
2021/08/30 19:29:18;;;;;;;6.95;2.67;;;;;;;;;;6115925;23;20172;-90
2021/08/30 19:32:26;;;;;;;4.45;2.92;;;;;;;;;;6117468;23;20177;-90
2021/08/30 19:35:31;;;;;;;7.97;3.92;;;;;;;;;;6116344;23;20220;-89
2021/08/30 19:38:36;;;;;;;12.27;5.13;;;;;;;;;;6115573;23;20213;-88
2021/08/30 19:41:41;;;;;;;9.18;3.75;;;;;;;;;;6115473;23;20226;-87
2021/08/30 19:44:46;;;;;;;9.85;4.10;;;;;;;;;;6133443;23;20168;-87
2021/08/30 19:47:52;;;;;;;5.72;3.38;;;;;;;;;;6117264;23;20608;-85
2021/08/30 19:51:00;;;;;;;5.18;3.17;;;;;;;;;;6117780;23;20192;-88
2021/08/30 19:54:05;;;;;;;3.92;2.50;;;;;;;;;;6136008;23;20616;-90
2021/08/30 19:57:11;;;;;;;5.50;3.63;;;;;;;;;;6146672;23;20180;-87
2021/08/30 20:00:18;;;;;;;6.18;3.17;;;;;;;;;;6151812;23;20225;-89
2021/08/30 20:03:25;;;;;;;3.88;2.55;;;;;;;;;;6149085;23;20658;-87
2021/08/30 20:06:30;;;;;;;4.95;2.75;;;;;;;;;;6149697;23;20184;-87
2021/08/30 20:09:36;;;;;;;5.00;2.60;;;;;;;;;;6151962;23;20169;-89
2021/08/30 20:12:41;;;;;;;6.30;3.15;;;;;;;;;;6152011;23;20645;-89
2021/08/30 20:15:46;;;;;;;7.78;3.00;;;;;;;;;;6151267;23;20173;-88
2021/08/30 20:18:52;;;;;;;9.00;4.43;;;;;;;;;;6152069;23;20499;-89
2021/08/30 20:21:58;;;;;;;6.28;3.33;;;;;;;;;;6150217;23;20168;-89
2021/08/30 20:25:04;;;;;;;4.65;2.90;;;;;;;;;;6148682;23;20172;-88
2021/08/30 20:28:10;;;;;;;4.47;2.58;;;;;;;;;;6149343;23;20270;-89
2021/08/30 20:31:16;;;;;;;6.75;2.58;;;;;;;;;;6150648;23;20184;-88
2021/08/30 20:34:23;;;;;;;5.97;3.45;;;;;;;;;;6150357;23;20168;-88
2021/08/30 20:37:28;;;;;;;5.32;2.83;;;;;;;;;;6149686;23;20173;-87
2021/08/30 20:40:34;;;;;;;3.58;2.10;;;;;;;;;;6148263;23;20175;-86
2021/08/30 20:43:40;;;;;;;5.45;3.00;;;;;;;;;;6150436;23;20220;-90
2021/08/30 20:46:45;;;;;;;6.20;2.63;;;;;;;;;;6149711;23;20180;-88
2021/08/30 20:49:51;;;;;;;7.78;2.95;;;;;;;;;;6164683;23;20173;-87
2021/08/30 20:52:58;;;;;;;5.95;2.80;;;;;;;;;;6148448;23;20207;-88
2021/08/30 20:56:04;;;;;;;10.57;3.20;;;;;;;;;;6149753;23;20176;-88
2021/08/30 20:59:09;;;;;;;6.18;2.33;;;;;;;;;;6150485;23;20171;-89
2021/08/30 21:02:14;;;;;;;7.30;2.60;;;;;;;;;;6168119;23;20200;-86
2021/08/30 21:05:21;;;;;;;5.35;2.22;;;;;;;;;;6166560;23;20179;-87
2021/08/30 21:08:26;;;;;;;6.32;2.72;;;;;;;;;;6148657;23;20161;-87